sensor_id;sensor_type;location;lat;lon;timestamp;P1;durP1;ratioP1;P2;durP2;ratioP2
32080;SDS011;18593;51.426;7.030;2023-05-14T00:00:13;14.45;;;9.85;;
32080;SDS011;18593;51.426;7.030;2023-05-14T00:02:42;16.13;;;10.15;;
32080;SDS011;18593;51.426;7.030;2023-05-14T00:05:10;17.35;;;10.07;;
32080;SDS011;18593;51.426;7.030;2023-05-14T00:07:37;15.30;;;10.43;;
32080;SDS011;18593;51.426;7.030;2023-05-14T00:10:04;13.68;;;10.05;;
32080;SDS011;18593;51.426;7.030;2023-05-14T00:12:32;22.58;;;10.10;;
32080;SDS011;18593;51.426;7.030;2023-05-14T00:15:00;15.63;;;10.27;;
32080;SDS011;18593;51.426;7.030;2023-05-14T00:17:27;14.60;;;9.82;;
32080;SDS011;18593;51.426;7.030;2023-05-14T00:19:56;16.63;;;10.20;;
32080;SDS011;18593;51.426;7.030;2023-05-14T00:22:23;13.52;;;9.57;;
32080;SDS011;18593;51.426;7.030;2023-05-14T00:24:50;17.48;;;10.13;;
32080;SDS011;18593;51.426;7.030;2023-05-14T00:27:18;18.95;;;10.60;;
32080;SDS011;18593;51.426;7.030;2023-05-14T00:29:45;15.70;;;10.32;;
32080;SDS011;18593;51.426;7.030;2023-05-14T00:32:12;15.35;;;10.20;;
32080;SDS011;18593;51.426;7.030;2023-05-14T00:34:39;16.75;;;10.68;;
32080;SDS011;18593;51.426;7.030;2023-05-14T00:37:08;15.77;;;11.02;;
32080;SDS011;18593;51.426;7.030;2023-05-14T00:39:35;14.88;;;10.80;;
32080;SDS011;18593;51.426;7.030;2023-05-14T00:44:37;21.48;;;11.13;;
32080;SDS011;18593;51.426;7.030;2023-05-14T00:47:04;14.27;;;10.70;;
32080;SDS011;18593;51.426;7.030;2023-05-14T00:49:32;13.52;;;9.93;;
32080;SDS011;18593;51.426;7.030;2023-05-14T00:52:00;18.25;;;10.85;;
32080;SDS011;18593;51.426;7.030;2023-05-14T00:54:29;14.40;;;10.70;;
32080;SDS011;18593;51.426;7.030;2023-05-14T00:56:56;14.90;;;10.18;;
32080;SDS011;18593;51.426;7.030;2023-05-14T00:59:25;16.40;;;10.43;;
32080;SDS011;18593;51.426;7.030;2023-05-14T01:01:52;16.20;;;10.52;;
32080;SDS011;18593;51.426;7.030;2023-05-14T01:04:19;13.88;;;10.40;;
32080;SDS011;18593;51.426;7.030;2023-05-14T01:06:49;15.18;;;11.05;;
32080;SDS011;18593;51.426;7.030;2023-05-14T01:09:31;19.33;;;10.98;;
32080;SDS011;18593;51.426;7.030;2023-05-14T01:12:10;15.98;;;10.38;;
32080;SDS011;18593;51.426;7.030;2023-05-14T01:14:48;17.77;;;10.95;;
32080;SDS011;18593;51.426;7.030;2023-05-14T01:17:24;14.48;;;10.23;;
32080;SDS011;18593;51.426;7.030;2023-05-14T01:19:54;13.93;;;10.55;;
32080;SDS011;18593;51.426;7.030;2023-05-14T01:22:24;13.98;;;10.00;;
32080;SDS011;18593;51.426;7.030;2023-05-14T01:24:51;14.18;;;10.65;;
32080;SDS011;18593;51.426;7.030;2023-05-14T01:27:24;11.60;;;9.50;;
32080;SDS011;18593;51.426;7.030;2023-05-14T01:30:02;15.48;;;10.20;;
32080;SDS011;18593;51.426;7.030;2023-05-14T01:32:37;15.30;;;10.13;;
32080;SDS011;18593;51.426;7.030;2023-05-14T01:35:06;17.80;;;9.93;;
32080;SDS011;18593;51.426;7.030;2023-05-14T01:37:36;20.50;;;10.88;;
32080;SDS011;18593;51.426;7.030;2023-05-14T01:40:05;13.88;;;10.45;;
32080;SDS011;18593;51.426;7.030;2023-05-14T01:42:34;14.23;;;10.57;;
32080;SDS011;18593;51.426;7.030;2023-05-14T01:45:02;13.38;;;9.90;;
32080;SDS011;18593;51.426;7.030;2023-05-14T01:47:31;14.15;;;10.10;;
32080;SDS011;18593;51.426;7.030;2023-05-14T01:49:58;17.52;;;11.10;;
32080;SDS011;18593;51.426;7.030;2023-05-14T01:52:25;14.68;;;10.70;;
32080;SDS011;18593;51.426;7.030;2023-05-14T01:54:54;16.45;;;10.00;;
32080;SDS011;18593;51.426;7.030;2023-05-14T01:57:22;14.98;;;10.18;;
32080;SDS011;18593;51.426;7.030;2023-05-14T01:59:49;19.50;;;10.50;;
32080;SDS011;18593;51.426;7.030;2023-05-14T02:02:17;13.77;;;10.65;;
32080;SDS011;18593;51.426;7.030;2023-05-14T02:04:44;15.80;;;10.65;;
32080;SDS011;18593;51.426;7.030;2023-05-14T02:07:11;16.05;;;11.10;;
32080;SDS011;18593;51.426;7.030;2023-05-14T02:09:38;14.05;;;10.68;;
32080;SDS011;18593;51.426;7.030;2023-05-14T02:12:08;14.52;;;10.55;;
32080;SDS011;18593;51.426;7.030;2023-05-14T02:14:35;17.92;;;11.35;;
32080;SDS011;18593;51.426;7.030;2023-05-14T02:17:03;15.75;;;11.50;;
32080;SDS011;18593;51.426;7.030;2023-05-14T02:19:31;14.50;;;11.70;;
32080;SDS011;18593;51.426;7.030;2023-05-14T02:21:58;16.65;;;12.10;;
32080;SDS011;18593;51.426;7.030;2023-05-14T02:24:25;15.38;;;10.95;;
32080;SDS011;18593;51.426;7.030;2023-05-14T02:26:53;16.85;;;10.95;;
32080;SDS011;18593;51.426;7.030;2023-05-14T02:29:22;15.05;;;11.10;;
32080;SDS011;18593;51.426;7.030;2023-05-14T02:31:49;17.73;;;10.50;;
32080;SDS011;18593;51.426;7.030;2023-05-14T02:34:17;13.40;;;10.23;;
32080;SDS011;18593;51.426;7.030;2023-05-14T02:36:44;13.70;;;9.75;;
32080;SDS011;18593;51.426;7.030;2023-05-14T02:39:11;15.85;;;10.38;;
32080;SDS011;18593;51.426;7.030;2023-05-14T02:41:39;16.42;;;10.65;;
32080;SDS011;18593;51.426;7.030;2023-05-14T02:44:06;18.65;;;10.15;;
32080;SDS011;18593;51.426;7.030;2023-05-14T02:46:34;15.43;;;9.90;;
32080;SDS011;18593;51.426;7.030;2023-05-14T02:49:02;15.57;;;9.90;;
32080;SDS011;18593;51.426;7.030;2023-05-14T02:51:29;14.45;;;10.52;;
32080;SDS011;18593;51.426;7.030;2023-05-14T02:53:56;15.43;;;10.45;;
32080;SDS011;18593;51.426;7.030;2023-05-14T02:56:23;12.93;;;10.25;;
32080;SDS011;18593;51.426;7.030;2023-05-14T02:58:51;17.25;;;10.45;;
32080;SDS011;18593;51.426;7.030;2023-05-14T03:01:18;17.30;;;11.10;;
32080;SDS011;18593;51.426;7.030;2023-05-14T03:03:47;14.48;;;10.18;;
32080;SDS011;18593;51.426;7.030;2023-05-14T03:06:14;14.60;;;10.35;;
32080;SDS011;18593;51.426;7.030;2023-05-14T03:08:41;13.63;;;10.70;;
32080;SDS011;18593;51.426;7.030;2023-05-14T03:11:09;15.95;;;11.10;;
32080;SDS011;18593;51.426;7.030;2023-05-14T03:13:37;14.55;;;10.60;;
32080;SDS011;18593;51.426;7.030;2023-05-14T03:16:04;15.73;;;11.77;;
32080;SDS011;18593;51.426;7.030;2023-05-14T03:18:32;15.75;;;10.40;;
32080;SDS011;18593;51.426;7.030;2023-05-14T03:21:02;13.95;;;10.48;;
32080;SDS011;18593;51.426;7.030;2023-05-14T03:23:29;15.98;;;9.98;;
32080;SDS011;18593;51.426;7.030;2023-05-14T03:25:59;15.55;;;10.80;;
32080;SDS011;18593;51.426;7.030;2023-05-14T03:28:26;15.00;;;10.25;;
32080;SDS011;18593;51.426;7.030;2023-05-14T03:30:53;19.00;;;10.48;;
32080;SDS011;18593;51.426;7.030;2023-05-14T03:33:21;15.68;;;10.73;;
32080;SDS011;18593;51.426;7.030;2023-05-14T03:35:48;13.25;;;10.27;;
32080;SDS011;18593;51.426;7.030;2023-05-14T03:38:17;16.67;;;10.73;;
32080;SDS011;18593;51.426;7.030;2023-05-14T03:40:45;15.40;;;10.45;;
32080;SDS011;18593;51.426;7.030;2023-05-14T03:43:12;12.48;;;10.15;;
32080;SDS011;18593;51.426;7.030;2023-05-14T03:45:41;14.18;;;9.35;;
32080;SDS011;18593;51.426;7.030;2023-05-14T03:48:08;13.45;;;10.48;;
32080;SDS011;18593;51.426;7.030;2023-05-14T03:50:36;16.55;;;10.55;;
32080;SDS011;18593;51.426;7.030;2023-05-14T03:53:04;15.38;;;9.80;;
32080;SDS011;18593;51.426;7.030;2023-05-14T03:55:33;13.43;;;9.63;;
32080;SDS011;18593;51.426;7.030;2023-05-14T03:58:00;13.68;;;9.82;;
32080;SDS011;18593;51.426;7.030;2023-05-14T04:00:31;15.15;;;10.32;;
32080;SDS011;18593;51.426;7.030;2023-05-14T04:02:58;14.18;;;9.95;;
32080;SDS011;18593;51.426;7.030;2023-05-14T04:05:26;12.90;;;10.45;;
32080;SDS011;18593;51.426;7.030;2023-05-14T04:07:53;13.48;;;10.25;;
32080;SDS011;18593;51.426;7.030;2023-05-14T04:10:22;13.75;;;9.98;;
32080;SDS011;18593;51.426;7.030;2023-05-14T04:12:50;12.07;;;9.45;;
32080;SDS011;18593;51.426;7.030;2023-05-14T04:15:19;17.58;;;10.68;;
32080;SDS011;18593;51.426;7.030;2023-05-14T04:17:46;15.45;;;10.05;;
32080;SDS011;18593;51.426;7.030;2023-05-14T04:20:14;12.57;;;9.73;;
32080;SDS011;18593;51.426;7.030;2023-05-14T04:22:41;15.32;;;10.02;;
32080;SDS011;18593;51.426;7.030;2023-05-14T04:25:08;14.70;;;10.82;;
32080;SDS011;18593;51.426;7.030;2023-05-14T04:27:35;14.35;;;9.95;;
32080;SDS011;18593;51.426;7.030;2023-05-14T04:30:05;16.67;;;10.95;;
32080;SDS011;18593;51.426;7.030;2023-05-14T04:32:34;15.50;;;11.18;;
32080;SDS011;18593;51.426;7.030;2023-05-14T04:35:02;13.73;;;10.10;;
32080;SDS011;18593;51.426;7.030;2023-05-14T04:37:30;12.00;;;9.98;;
32080;SDS011;18593;51.426;7.030;2023-05-14T04:39:57;15.05;;;10.60;;
32080;SDS011;18593;51.426;7.030;2023-05-14T04:42:25;12.65;;;9.93;;
32080;SDS011;18593;51.426;7.030;2023-05-14T04:44:52;12.25;;;9.82;;
32080;SDS011;18593;51.426;7.030;2023-05-14T04:47:20;14.43;;;10.00;;
32080;SDS011;18593;51.426;7.030;2023-05-14T04:49:47;16.63;;;10.50;;
32080;SDS011;18593;51.426;7.030;2023-05-14T04:52:15;12.32;;;10.13;;
32080;SDS011;18593;51.426;7.030;2023-05-14T04:54:42;15.27;;;10.02;;
32080;SDS011;18593;51.426;7.030;2023-05-14T04:57:09;14.35;;;9.52;;
32080;SDS011;18593;51.426;7.030;2023-05-14T04:59:36;15.18;;;10.95;;
32080;SDS011;18593;51.426;7.030;2023-05-14T05:02:03;17.80;;;10.73;;
32080;SDS011;18593;51.426;7.030;2023-05-14T05:04:32;12.73;;;9.98;;
32080;SDS011;18593;51.426;7.030;2023-05-14T05:06:59;15.35;;;10.10;;
32080;SDS011;18593;51.426;7.030;2023-05-14T05:09:26;12.43;;;9.63;;
32080;SDS011;18593;51.426;7.030;2023-05-14T05:11:54;14.82;;;10.32;;
32080;SDS011;18593;51.426;7.030;2023-05-14T05:14:21;14.10;;;10.45;;
32080;SDS011;18593;51.426;7.030;2023-05-14T05:16:48;17.48;;;11.35;;
32080;SDS011;18593;51.426;7.030;2023-05-14T05:19:16;12.57;;;10.27;;
32080;SDS011;18593;51.426;7.030;2023-05-14T05:21:44;13.02;;;9.90;;
32080;SDS011;18593;51.426;7.030;2023-05-14T05:24:12;13.07;;;10.35;;
32080;SDS011;18593;51.426;7.030;2023-05-14T05:26:39;13.82;;;9.63;;
32080;SDS011;18593;51.426;7.030;2023-05-14T05:29:06;15.57;;;10.55;;
32080;SDS011;18593;51.426;7.030;2023-05-14T05:31:33;14.38;;;9.93;;
32080;SDS011;18593;51.426;7.030;2023-05-14T05:34:01;13.95;;;10.23;;
32080;SDS011;18593;51.426;7.030;2023-05-14T05:36:29;17.80;;;10.43;;
32080;SDS011;18593;51.426;7.030;2023-05-14T05:38:57;13.82;;;9.65;;
32080;SDS011;18593;51.426;7.030;2023-05-14T05:41:24;13.98;;;10.25;;
32080;SDS011;18593;51.426;7.030;2023-05-14T05:43:52;12.55;;;9.55;;
32080;SDS011;18593;51.426;7.030;2023-05-14T05:46:19;13.35;;;10.35;;
32080;SDS011;18593;51.426;7.030;2023-05-14T05:48:46;13.38;;;10.10;;
32080;SDS011;18593;51.426;7.030;2023-05-14T05:51:13;13.30;;;9.50;;
32080;SDS011;18593;51.426;7.030;2023-05-14T05:53:40;13.43;;;10.00;;
32080;SDS011;18593;51.426;7.030;2023-05-14T05:56:09;13.27;;;9.75;;
32080;SDS011;18593;51.426;7.030;2023-05-14T05:58:37;12.27;;;9.90;;
32080;SDS011;18593;51.426;7.030;2023-05-14T06:01:04;12.13;;;9.57;;
32080;SDS011;18593;51.426;7.030;2023-05-14T06:03:31;13.27;;;9.57;;
32080;SDS011;18593;51.426;7.030;2023-05-14T06:05:59;14.48;;;10.55;;
32080;SDS011;18593;51.426;7.030;2023-05-14T06:08:27;13.85;;;10.10;;
32080;SDS011;18593;51.426;7.030;2023-05-14T06:10:54;12.18;;;9.73;;
32080;SDS011;18593;51.426;7.030;2023-05-14T06:13:22;14.20;;;9.77;;
32080;SDS011;18593;51.426;7.030;2023-05-14T06:15:49;13.85;;;10.20;;
32080;SDS011;18593;51.426;7.030;2023-05-14T06:18:17;17.40;;;10.75;;
32080;SDS011;18593;51.426;7.030;2023-05-14T06:20:44;15.70;;;10.07;;
32080;SDS011;18593;51.426;7.030;2023-05-14T06:23:11;14.70;;;9.05;;
32080;SDS011;18593;51.426;7.030;2023-05-14T06:25:38;11.32;;;9.00;;
32080;SDS011;18593;51.426;7.030;2023-05-14T06:28:05;12.70;;;8.52;;
32080;SDS011;18593;51.426;7.030;2023-05-14T06:30:34;13.10;;;9.02;;
32080;SDS011;18593;51.426;7.030;2023-05-14T06:33:01;12.93;;;8.60;;
32080;SDS011;18593;51.426;7.030;2023-05-14T06:35:29;14.70;;;8.50;;
32080;SDS011;18593;51.426;7.030;2023-05-14T06:37:56;12.30;;;8.80;;
32080;SDS011;18593;51.426;7.030;2023-05-14T06:40:23;10.77;;;8.00;;
32080;SDS011;18593;51.426;7.030;2023-05-14T06:42:50;11.15;;;7.47;;
32080;SDS011;18593;51.426;7.030;2023-05-14T06:45:18;9.35;;;8.00;;
32080;SDS011;18593;51.426;7.030;2023-05-14T06:47:46;10.55;;;7.55;;
32080;SDS011;18593;51.426;7.030;2023-05-14T06:50:14;10.93;;;8.00;;
32080;SDS011;18593;51.426;7.030;2023-05-14T06:52:41;10.15;;;7.72;;
32080;SDS011;18593;51.426;7.030;2023-05-14T06:55:09;12.02;;;7.78;;
32080;SDS011;18593;51.426;7.030;2023-05-14T06:57:36;13.75;;;7.57;;
32080;SDS011;18593;51.426;7.030;2023-05-14T07:00:04;12.55;;;7.10;;
32080;SDS011;18593;51.426;7.030;2023-05-14T07:02:33;12.30;;;7.35;;
32080;SDS011;18593;51.426;7.030;2023-05-14T07:05:02;12.05;;;7.55;;
32080;SDS011;18593;51.426;7.030;2023-05-14T07:07:29;12.43;;;7.15;;
32080;SDS011;18593;51.426;7.030;2023-05-14T07:09:57;10.00;;;6.63;;
32080;SDS011;18593;51.426;7.030;2023-05-14T07:12:24;8.43;;;6.00;;
32080;SDS011;18593;51.426;7.030;2023-05-14T07:14:51;10.20;;;6.03;;
32080;SDS011;18593;51.426;7.030;2023-05-14T07:17:18;10.50;;;5.88;;
32080;SDS011;18593;51.426;7.030;2023-05-14T07:19:46;11.00;;;5.18;;
32080;SDS011;18593;51.426;7.030;2023-05-14T07:22:14;8.43;;;5.03;;
32080;SDS011;18593;51.426;7.030;2023-05-14T07:24:41;9.15;;;5.70;;
32080;SDS011;18593;51.426;7.030;2023-05-14T07:27:08;7.38;;;5.10;;
32080;SDS011;18593;51.426;7.030;2023-05-14T07:29:36;8.00;;;4.88;;
32080;SDS011;18593;51.426;7.030;2023-05-14T07:32:03;8.15;;;5.05;;
32080;SDS011;18593;51.426;7.030;2023-05-14T07:34:31;8.70;;;5.45;;
32080;SDS011;18593;51.426;7.030;2023-05-14T07:36:58;10.30;;;5.28;;
32080;SDS011;18593;51.426;7.030;2023-05-14T07:39:27;6.93;;;5.03;;
32080;SDS011;18593;51.426;7.030;2023-05-14T07:41:54;9.13;;;6.07;;
32080;SDS011;18593;51.426;7.030;2023-05-14T07:44:21;6.57;;;5.10;;
32080;SDS011;18593;51.426;7.030;2023-05-14T07:46:48;7.90;;;4.60;;
32080;SDS011;18593;51.426;7.030;2023-05-14T07:49:15;14.40;;;5.20;;
32080;SDS011;18593;51.426;7.030;2023-05-14T07:51:43;7.68;;;5.53;;
32080;SDS011;18593;51.426;7.030;2023-05-14T07:54:10;8.05;;;5.35;;
32080;SDS011;18593;51.426;7.030;2023-05-14T07:56:38;10.23;;;5.05;;
32080;SDS011;18593;51.426;7.030;2023-05-14T07:59:06;8.07;;;5.40;;
32080;SDS011;18593;51.426;7.030;2023-05-14T08:01:33;12.90;;;7.10;;
32080;SDS011;18593;51.426;7.030;2023-05-14T08:04:00;9.13;;;5.90;;
32080;SDS011;18593;51.426;7.030;2023-05-14T08:06:28;10.07;;;5.70;;
32080;SDS011;18593;51.426;7.030;2023-05-14T08:08:55;7.35;;;5.28;;
32080;SDS011;18593;51.426;7.030;2023-05-14T08:11:22;7.13;;;5.05;;
32080;SDS011;18593;51.426;7.030;2023-05-14T08:13:51;8.20;;;5.20;;
32080;SDS011;18593;51.426;7.030;2023-05-14T08:16:18;7.75;;;5.03;;
32080;SDS011;18593;51.426;7.030;2023-05-14T08:18:46;11.55;;;4.30;;
32080;SDS011;18593;51.426;7.030;2023-05-14T08:21:13;5.97;;;4.50;;
32080;SDS011;18593;51.426;7.030;2023-05-14T08:23:41;6.50;;;4.45;;
32080;SDS011;18593;51.426;7.030;2023-05-14T08:26:08;8.13;;;4.15;;
32080;SDS011;18593;51.426;7.030;2023-05-14T08:28:35;7.15;;;4.20;;
32080;SDS011;18593;51.426;7.030;2023-05-14T08:31:04;5.78;;;3.60;;
32080;SDS011;18593;51.426;7.030;2023-05-14T08:33:31;5.18;;;3.33;;
32080;SDS011;18593;51.426;7.030;2023-05-14T08:35:58;6.03;;;3.17;;
32080;SDS011;18593;51.426;7.030;2023-05-14T08:38:25;5.32;;;3.15;;
32080;SDS011;18593;51.426;7.030;2023-05-14T08:40:54;7.50;;;3.35;;
32080;SDS011;18593;51.426;7.030;2023-05-14T08:43:24;7.43;;;3.67;;
32080;SDS011;18593;51.426;7.030;2023-05-14T08:45:56;5.70;;;3.78;;
32080;SDS011;18593;51.426;7.030;2023-05-14T08:48:28;5.30;;;3.17;;
32080;SDS011;18593;51.426;7.030;2023-05-14T08:50:58;11.02;;;3.75;;
32080;SDS011;18593;51.426;7.030;2023-05-14T08:53:27;5.93;;;3.47;;
32080;SDS011;18593;51.426;7.030;2023-05-14T08:55:55;7.38;;;3.40;;
32080;SDS011;18593;51.426;7.030;2023-05-14T08:58:23;6.55;;;3.25;;
32080;SDS011;18593;51.426;7.030;2023-05-14T09:00:52;6.60;;;2.80;;
32080;SDS011;18593;51.426;7.030;2023-05-14T09:03:20;6.55;;;3.20;;
32080;SDS011;18593;51.426;7.030;2023-05-14T09:05:50;8.43;;;3.38;;
32080;SDS011;18593;51.426;7.030;2023-05-14T09:08:18;6.13;;;2.90;;
32080;SDS011;18593;51.426;7.030;2023-05-14T09:10:46;5.57;;;2.90;;
32080;SDS011;18593;51.426;7.030;2023-05-14T09:13:13;10.05;;;3.70;;
32080;SDS011;18593;51.426;7.030;2023-05-14T09:15:40;6.07;;;3.10;;
32080;SDS011;18593;51.426;7.030;2023-05-14T09:18:08;5.03;;;2.70;;
32080;SDS011;18593;51.426;7.030;2023-05-14T09:20:35;5.63;;;3.35;;
32080;SDS011;18593;51.426;7.030;2023-05-14T09:25:35;5.28;;;3.08;;
32080;SDS011;18593;51.426;7.030;2023-05-14T09:28:04;7.10;;;3.13;;
32080;SDS011;18593;51.426;7.030;2023-05-14T09:33:01;6.80;;;2.95;;
32080;SDS011;18593;51.426;7.030;2023-05-14T09:35:29;6.35;;;3.00;;
32080;SDS011;18593;51.426;7.030;2023-05-14T09:37:56;7.05;;;2.92;;
32080;SDS011;18593;51.426;7.030;2023-05-14T09:40:25;5.28;;;2.80;;
32080;SDS011;18593;51.426;7.030;2023-05-14T09:42:52;5.35;;;3.40;;
32080;SDS011;18593;51.426;7.030;2023-05-14T09:45:20;5.53;;;2.88;;
32080;SDS011;18593;51.426;7.030;2023-05-14T09:47:47;7.82;;;3.35;;
32080;SDS011;18593;51.426;7.030;2023-05-14T09:50:15;5.38;;;3.15;;
32080;SDS011;18593;51.426;7.030;2023-05-14T09:52:42;5.78;;;3.08;;
32080;SDS011;18593;51.426;7.030;2023-05-14T09:55:10;8.27;;;3.30;;
32080;SDS011;18593;51.426;7.030;2023-05-14T09:57:38;9.65;;;3.53;;
32080;SDS011;18593;51.426;7.030;2023-05-14T10:00:06;9.35;;;3.00;;
32080;SDS011;18593;51.426;7.030;2023-05-14T10:02:36;6.22;;;3.20;;
32080;SDS011;18593;51.426;7.030;2023-05-14T10:05:06;7.22;;;3.25;;
32080;SDS011;18593;51.426;7.030;2023-05-14T10:07:36;6.85;;;3.15;;
32080;SDS011;18593;51.426;7.030;2023-05-14T10:10:07;5.07;;;3.05;;
32080;SDS011;18593;51.426;7.030;2023-05-14T10:12:42;7.75;;;3.42;;
32080;SDS011;18593;51.426;7.030;2023-05-14T10:15:18;7.88;;;3.65;;
32080;SDS011;18593;51.426;7.030;2023-05-14T10:17:54;5.80;;;3.72;;
32080;SDS011;18593;51.426;7.030;2023-05-14T10:20:24;6.38;;;2.65;;
32080;SDS011;18593;51.426;7.030;2023-05-14T10:22:53;6.40;;;3.25;;
32080;SDS011;18593;51.426;7.030;2023-05-14T10:25:21;6.63;;;3.20;;
32080;SDS011;18593;51.426;7.030;2023-05-14T10:27:50;8.32;;;3.03;;
32080;SDS011;18593;51.426;7.030;2023-05-14T10:30:19;5.55;;;2.90;;
32080;SDS011;18593;51.426;7.030;2023-05-14T10:32:47;4.88;;;3.00;;
32080;SDS011;18593;51.426;7.030;2023-05-14T10:35:15;4.90;;;2.67;;
32080;SDS011;18593;51.426;7.030;2023-05-14T10:37:49;8.00;;;3.00;;
32080;SDS011;18593;51.426;7.030;2023-05-14T10:40:17;8.25;;;3.00;;
32080;SDS011;18593;51.426;7.030;2023-05-14T10:42:45;14.30;;;3.13;;
32080;SDS011;18593;51.426;7.030;2023-05-14T10:45:15;5.03;;;3.08;;
32080;SDS011;18593;51.426;7.030;2023-05-14T10:47:43;6.82;;;3.38;;
32080;SDS011;18593;51.426;7.030;2023-05-14T10:50:13;7.70;;;2.92;;
32080;SDS011;18593;51.426;7.030;2023-05-14T10:52:41;7.78;;;3.17;;
32080;SDS011;18593;51.426;7.030;2023-05-14T10:55:11;6.07;;;2.90;;
32080;SDS011;18593;51.426;7.030;2023-05-14T10:57:41;7.63;;;3.53;;
32080;SDS011;18593;51.426;7.030;2023-05-14T11:00:10;10.77;;;3.37;;
32080;SDS011;18593;51.426;7.030;2023-05-14T11:02:41;5.25;;;2.80;;
32080;SDS011;18593;51.426;7.030;2023-05-14T11:05:10;5.70;;;3.00;;
32080;SDS011;18593;51.426;7.030;2023-05-14T11:07:42;5.07;;;2.97;;
32080;SDS011;18593;51.426;7.030;2023-05-14T11:10:11;6.00;;;3.70;;
32080;SDS011;18593;51.426;7.030;2023-05-14T11:12:40;5.07;;;3.38;;
32080;SDS011;18593;51.426;7.030;2023-05-14T11:15:09;6.15;;;3.05;;
32080;SDS011;18593;51.426;7.030;2023-05-14T11:17:39;5.70;;;3.10;;
32080;SDS011;18593;51.426;7.030;2023-05-14T11:20:09;4.85;;;2.97;;
32080;SDS011;18593;51.426;7.030;2023-05-14T11:22:38;7.07;;;3.78;;
32080;SDS011;18593;51.426;7.030;2023-05-14T11:25:07;6.53;;;3.72;;
32080;SDS011;18593;51.426;7.030;2023-05-14T11:27:35;7.32;;;3.45;;
32080;SDS011;18593;51.426;7.030;2023-05-14T11:30:04;5.18;;;3.17;;
32080;SDS011;18593;51.426;7.030;2023-05-14T11:32:38;4.95;;;2.95;;
32080;SDS011;18593;51.426;7.030;2023-05-14T11:35:08;7.77;;;3.40;;
32080;SDS011;18593;51.426;7.030;2023-05-14T11:37:36;6.43;;;2.97;;
32080;SDS011;18593;51.426;7.030;2023-05-14T11:40:05;6.55;;;3.08;;
32080;SDS011;18593;51.426;7.030;2023-05-14T11:42:35;5.65;;;3.17;;
32080;SDS011;18593;51.426;7.030;2023-05-14T11:45:03;6.35;;;3.50;;
32080;SDS011;18593;51.426;7.030;2023-05-14T11:47:31;6.13;;;2.90;;
32080;SDS011;18593;51.426;7.030;2023-05-14T11:50:00;6.18;;;3.00;;
32080;SDS011;18593;51.426;7.030;2023-05-14T11:52:27;6.78;;;2.90;;
32080;SDS011;18593;51.426;7.030;2023-05-14T11:54:54;5.70;;;3.00;;
32080;SDS011;18593;51.426;7.030;2023-05-14T11:57:21;8.25;;;2.95;;
32080;SDS011;18593;51.426;7.030;2023-05-14T11:59:53;5.75;;;2.97;;
32080;SDS011;18593;51.426;7.030;2023-05-14T12:02:22;8.18;;;3.00;;
32080;SDS011;18593;51.426;7.030;2023-05-14T12:04:53;7.50;;;3.08;;
32080;SDS011;18593;51.426;7.030;2023-05-14T12:07:21;4.88;;;2.85;;
32080;SDS011;18593;51.426;7.030;2023-05-14T12:09:49;5.57;;;2.85;;
32080;SDS011;18593;51.426;7.030;2023-05-14T12:12:17;5.30;;;3.00;;
32080;SDS011;18593;51.426;7.030;2023-05-14T12:14:45;6.65;;;2.80;;
32080;SDS011;18593;51.426;7.030;2023-05-14T12:17:15;6.25;;;3.13;;
32080;SDS011;18593;51.426;7.030;2023-05-14T12:19:44;8.07;;;2.80;;
32080;SDS011;18593;51.426;7.030;2023-05-14T12:22:13;6.60;;;2.88;;
32080;SDS011;18593;51.426;7.030;2023-05-14T12:24:46;7.20;;;2.95;;
32080;SDS011;18593;51.426;7.030;2023-05-14T12:27:20;7.13;;;2.97;;
32080;SDS011;18593;51.426;7.030;2023-05-14T12:29:49;5.57;;;2.78;;
32080;SDS011;18593;51.426;7.030;2023-05-14T12:32:24;10.88;;;2.63;;
32080;SDS011;18593;51.426;7.030;2023-05-14T12:34:51;5.68;;;2.65;;
32080;SDS011;18593;51.426;7.030;2023-05-14T12:37:18;6.20;;;2.90;;
32080;SDS011;18593;51.426;7.030;2023-05-14T12:39:47;5.60;;;2.70;;
32080;SDS011;18593;51.426;7.030;2023-05-14T12:42:14;5.93;;;2.50;;
32080;SDS011;18593;51.426;7.030;2023-05-14T12:44:41;4.60;;;2.45;;
32080;SDS011;18593;51.426;7.030;2023-05-14T12:47:08;5.90;;;2.70;;
32080;SDS011;18593;51.426;7.030;2023-05-14T12:49:36;6.97;;;2.67;;
32080;SDS011;18593;51.426;7.030;2023-05-14T12:52:03;4.20;;;3.00;;
32080;SDS011;18593;51.426;7.030;2023-05-14T12:54:31;5.88;;;3.03;;
32080;SDS011;18593;51.426;7.030;2023-05-14T12:56:59;5.60;;;2.97;;
32080;SDS011;18593;51.426;7.030;2023-05-14T12:59:27;4.53;;;2.80;;
32080;SDS011;18593;51.426;7.030;2023-05-14T13:01:54;5.72;;;2.70;;
32080;SDS011;18593;51.426;7.030;2023-05-14T13:04:21;5.88;;;2.45;;
32080;SDS011;18593;51.426;7.030;2023-05-14T13:06:48;6.30;;;2.95;;
32080;SDS011;18593;51.426;7.030;2023-05-14T13:09:15;8.07;;;2.65;;
32080;SDS011;18593;51.426;7.030;2023-05-14T13:11:43;5.03;;;2.70;;
32080;SDS011;18593;51.426;7.030;2023-05-14T13:14:11;5.03;;;2.75;;
32080;SDS011;18593;51.426;7.030;2023-05-14T13:16:39;7.70;;;3.00;;
32080;SDS011;18593;51.426;7.030;2023-05-14T13:19:06;7.00;;;2.70;;
32080;SDS011;18593;51.426;7.030;2023-05-14T13:21:33;4.75;;;2.58;;
32080;SDS011;18593;51.426;7.030;2023-05-14T13:24:00;5.25;;;2.83;;
32080;SDS011;18593;51.426;7.030;2023-05-14T13:26:27;5.30;;;3.03;;
32080;SDS011;18593;51.426;7.030;2023-05-14T13:28:55;5.47;;;2.72;;
32080;SDS011;18593;51.426;7.030;2023-05-14T13:31:23;4.43;;;2.50;;
32080;SDS011;18593;51.426;7.030;2023-05-14T13:33:50;3.92;;;2.35;;
32080;SDS011;18593;51.426;7.030;2023-05-14T13:36:17;5.93;;;2.50;;
32080;SDS011;18593;51.426;7.030;2023-05-14T13:38:45;4.28;;;2.58;;
32080;SDS011;18593;51.426;7.030;2023-05-14T13:41:12;5.50;;;2.65;;
32080;SDS011;18593;51.426;7.030;2023-05-14T13:43:39;5.80;;;2.60;;
32080;SDS011;18593;51.426;7.030;2023-05-14T13:46:06;6.05;;;2.70;;
32080;SDS011;18593;51.426;7.030;2023-05-14T13:48:35;5.72;;;2.45;;
32080;SDS011;18593;51.426;7.030;2023-05-14T13:51:02;4.30;;;2.33;;
32080;SDS011;18593;51.426;7.030;2023-05-14T13:53:29;3.47;;;2.15;;
32080;SDS011;18593;51.426;7.030;2023-05-14T13:55:57;5.07;;;2.42;;
32080;SDS011;18593;51.426;7.030;2023-05-14T13:58:26;7.90;;;2.33;;
32080;SDS011;18593;51.426;7.030;2023-05-14T14:00:53;4.03;;;2.35;;
32080;SDS011;18593;51.426;7.030;2023-05-14T14:03:21;9.80;;;2.58;;
32080;SDS011;18593;51.426;7.030;2023-05-14T14:05:49;4.70;;;2.40;;
32080;SDS011;18593;51.426;7.030;2023-05-14T14:08:16;6.13;;;2.50;;
32080;SDS011;18593;51.426;7.030;2023-05-14T14:10:44;5.95;;;2.38;;
32080;SDS011;18593;51.426;7.030;2023-05-14T14:13:11;5.35;;;2.10;;
32080;SDS011;18593;51.426;7.030;2023-05-14T14:15:38;4.38;;;2.20;;
32080;SDS011;18593;51.426;7.030;2023-05-14T14:18:05;4.93;;;2.40;;
32080;SDS011;18593;51.426;7.030;2023-05-14T14:20:33;4.65;;;2.50;;
32080;SDS011;18593;51.426;7.030;2023-05-14T14:23:01;6.38;;;2.30;;
32080;SDS011;18593;51.426;7.030;2023-05-14T14:25:28;8.00;;;2.78;;
32080;SDS011;18593;51.426;7.030;2023-05-14T14:27:56;4.25;;;2.60;;
32080;SDS011;18593;51.426;7.030;2023-05-14T14:30:23;5.75;;;2.70;;
32080;SDS011;18593;51.426;7.030;2023-05-14T14:32:50;4.25;;;2.30;;
32080;SDS011;18593;51.426;7.030;2023-05-14T14:35:18;5.38;;;2.25;;
32080;SDS011;18593;51.426;7.030;2023-05-14T14:37:54;5.97;;;2.45;;
32080;SDS011;18593;51.426;7.030;2023-05-14T14:40:27;7.83;;;2.27;;
32080;SDS011;18593;51.426;7.030;2023-05-14T14:42:54;4.00;;;2.25;;
32080;SDS011;18593;51.426;7.030;2023-05-14T14:45:21;3.67;;;2.28;;
32080;SDS011;18593;51.426;7.030;2023-05-14T14:47:49;5.53;;;2.25;;